createdAt,value
2022-11-26T00:01:49.831Z,77.27
2022-11-26T00:04:16.495Z,77.47
2022-11-26T00:30:17.049Z,81.90
2022-11-26T00:32:43.607Z,81.41
2022-11-26T00:43:03.022Z,77.13
2022-11-26T00:45:31.432Z,76.01
2022-11-26T00:50:41.373Z,76.45
2022-11-26T00:53:12.051Z,76.13
2022-11-26T00:58:21.683Z,75.22
2022-11-26T01:00:48.325Z,75.07
2022-11-26T01:03:14.940Z,74.59
2022-11-26T01:05:41.535Z,74.70
2022-11-26T01:08:27.925Z,74.70
2022-11-26T01:14:35.971Z,75.63
2022-11-26T01:17:03.267Z,74.66
2022-11-26T01:19:29.873Z,73.98
2022-11-26T01:21:56.441Z,73.97
2022-11-26T01:24:42.950Z,73.87
2022-11-26T01:27:12.760Z,74.08
2022-11-26T01:29:39.388Z,74.06
2022-11-26T01:32:06.032Z,74.26
2022-11-26T01:34:32.614Z,74.20
2022-11-26T01:37:21.082Z,74.46
2022-11-26T01:42:42.471Z,74.10
2022-11-26T01:45:18.261Z,73.83
2022-11-26T01:47:48.612Z,73.67
2022-11-26T01:54:24.028Z,74.08
2022-11-26T01:57:06.530Z,74.00
2022-11-26T01:59:38.297Z,73.93
2022-11-26T02:02:07.701Z,74.46
2022-11-26T02:05:07.897Z,74.41
2022-11-26T02:07:35.515Z,75.23
2022-11-26T02:10:20.671Z,74.56
2022-11-26T02:13:01.463Z,74.10
2022-11-26T02:15:45.707Z,73.97
2022-11-26T02:18:21.258Z,75.69
2022-11-26T02:30:04.906Z,73.91
2022-11-26T02:32:46.998Z,74.12
2022-11-26T02:38:25.021Z,73.79
2022-11-26T02:41:09.303Z,75.42
2022-11-26T02:46:23.186Z,77.15
2022-11-26T03:12:49.728Z,74.13
2022-11-26T03:15:16.342Z,74.09
2022-11-26T03:18:25.865Z,73.93
2022-11-26T03:27:01.561Z,74.71
2022-11-26T03:29:28.280Z,74.23
2022-11-26T03:34:31.735Z,74.61
2022-11-26T03:36:58.306Z,75.70
2022-11-26T03:42:20.533Z,75.57
2022-11-26T03:44:47.251Z,75.58
2022-11-26T03:56:01.735Z,75.61
2022-11-26T03:58:32.428Z,76.07
2022-11-26T04:01:10.107Z,76.03
2022-11-26T04:06:11.974Z,76.30
2022-11-26T04:08:42.373Z,75.83
2022-11-26T04:11:10.151Z,75.35
2022-11-26T04:13:39.789Z,75.74
2022-11-26T04:16:06.677Z,76.42
2022-11-26T04:21:21.854Z,76.22
2022-11-26T04:23:50.615Z,77.10
2022-11-26T04:26:17.493Z,76.48
2022-11-26T04:28:44.681Z,76.57
2022-11-26T04:31:11.644Z,76.87
2022-11-26T04:33:38.340Z,77.60
2022-11-26T04:36:05.554Z,77.46
2022-11-26T04:38:50.707Z,77.09
2022-11-26T04:41:17.336Z,77.99
2022-11-26T04:44:05.553Z,78.76
2022-11-26T04:46:32.261Z,78.72
2022-11-26T04:52:34.016Z,79.86
2022-11-26T04:55:00.546Z,78.00
2022-11-26T04:57:27.143Z,78.37
2022-11-26T04:59:53.822Z,78.27
2022-11-26T05:02:20.419Z,78.44
2022-11-26T05:04:47.020Z,77.45
2022-11-26T05:07:13.674Z,77.89
2022-11-26T05:09:40.271Z,77.25
2022-11-26T05:12:07.224Z,76.90
2022-11-26T05:14:33.772Z,76.69
2022-11-26T05:17:00.403Z,76.91
2022-11-26T05:19:27.032Z,77.01
2022-11-26T05:22:15.435Z,77.03
2022-11-26T05:24:42.003Z,76.88
2022-11-26T05:27:13.079Z,77.21
2022-11-26T05:29:39.677Z,76.99
2022-11-26T05:33:01.923Z,76.66
2022-11-26T05:36:07.510Z,77.04
2022-11-26T05:38:35.525Z,76.82
2022-11-26T05:41:02.120Z,77.02
2022-11-26T05:43:31.368Z,77.99
2022-11-26T05:46:03.865Z,77.69
2022-11-26T05:48:30.517Z,77.86
2022-11-26T05:50:58.821Z,77.62
2022-11-26T05:53:25.622Z,78.13
2022-11-26T05:55:52.156Z,78.92
2022-11-26T05:58:18.764Z,78.50
2022-11-26T06:00:46.303Z,77.85
2022-11-26T06:03:17.033Z,76.88
2022-11-26T06:25:28.875Z,76.77
2022-11-26T06:27:56.059Z,76.63
2022-11-26T06:30:22.802Z,76.65
2022-11-26T06:32:49.691Z,76.24
2022-11-26T06:38:11.801Z,76.40
2022-11-26T06:40:38.371Z,77.09
2022-11-26T06:53:45.758Z,76.37
2022-11-26T06:56:18.564Z,75.93
2022-11-26T06:58:47.428Z,75.57
2022-11-26T07:01:23.807Z,76.15
2022-11-26T07:03:50.957Z,76.35
2022-11-26T07:06:22.376Z,76.21
2022-11-26T07:08:49.934Z,75.97
2022-11-26T07:11:16.753Z,75.55
2022-11-26T07:13:44.066Z,75.70
2022-11-26T07:16:29.368Z,75.59
2022-11-26T07:19:02.500Z,75.72
2022-11-26T07:21:30.332Z,75.66
2022-11-26T07:23:57.020Z,75.09
2022-11-26T07:26:24.111Z,75.31
2022-11-26T07:28:51.086Z,75.21
2022-11-26T07:31:20.911Z,75.33
2022-11-26T07:33:48.441Z,75.46
2022-11-26T07:36:25.264Z,75.49
2022-11-26T07:38:54.742Z,76.45
2022-11-26T07:41:21.504Z,76.83
2022-11-26T07:43:48.216Z,76.71
2022-11-26T07:46:18.064Z,76.86
2022-11-26T07:48:45.337Z,76.52
2022-11-26T07:51:29.684Z,75.57
2022-11-26T07:53:58.952Z,76.43
2022-11-26T08:01:36.940Z,75.39
2022-11-26T08:04:05.535Z,75.11
2022-11-26T08:06:33.954Z,74.69
2022-11-26T08:09:02.193Z,75.07
2022-11-26T08:11:31.156Z,74.72
2022-11-26T08:14:01.896Z,74.95
2022-11-26T08:16:29.248Z,75.04
2022-11-26T08:19:02.324Z,74.72
2022-11-26T08:21:29.211Z,74.34
2022-11-26T08:23:55.865Z,74.29
2022-11-26T08:26:30.667Z,73.84
2022-11-26T08:29:00.958Z,74.24
2022-11-26T08:31:28.459Z,73.90
2022-11-26T08:33:59.252Z,74.34
2022-11-26T08:46:59.851Z,73.38
2022-11-26T08:49:26.444Z,73.60
2022-11-26T08:51:55.791Z,73.39
2022-11-26T08:54:23.555Z,73.56
2022-11-26T08:56:50.156Z,73.08
2022-11-26T08:59:17.582Z,72.94
2022-11-26T09:01:44.223Z,72.51
2022-11-26T09:04:10.855Z,72.68
2022-11-26T09:06:37.792Z,72.65
2022-11-26T09:09:15.028Z,73.26
2022-11-26T09:11:56.246Z,72.64
2022-11-26T09:14:27.309Z,72.49
2022-11-26T09:33:05.796Z,71.16
2022-11-26T09:35:32.463Z,71.70
2022-11-26T09:37:59.048Z,71.11
2022-11-26T09:40:38.332Z,70.68
2022-11-26T09:43:12.769Z,70.09
2022-11-26T09:45:46.955Z,69.54
2022-11-26T09:48:21.581Z,69.39
2022-11-26T09:50:51.598Z,69.15
2022-11-26T09:53:27.947Z,68.96
2022-11-26T09:55:56.378Z,68.62
2022-11-26T09:58:40.343Z,68.48
2022-11-26T10:01:14.011Z,68.30
2022-11-26T10:03:42.367Z,68.08
2022-11-26T10:06:11.029Z,68.35
2022-11-26T10:09:14.687Z,67.96
2022-11-26T10:12:00.102Z,67.91
2022-11-26T10:14:46.173Z,67.79
2022-11-26T10:28:27.997Z,67.99
2022-11-26T10:31:03.195Z,68.04
2022-11-26T10:33:36.848Z,68.14
2022-11-26T10:36:09.216Z,67.81
2022-11-26T10:38:35.771Z,67.92
2022-11-26T10:41:02.309Z,67.45
2022-11-26T10:43:30.517Z,67.48
2022-11-26T10:45:57.316Z,68.13
2022-11-26T10:48:26.761Z,69.48
2022-11-26T10:51:00.240Z,68.73
2022-11-26T10:53:28.298Z,69.08
2022-11-26T10:55:59.250Z,68.44
2022-11-26T10:58:33.146Z,67.89
2022-11-26T11:01:03.556Z,67.29
2022-11-26T11:04:06.611Z,66.43
2022-11-26T11:06:34.799Z,66.46
2022-11-26T11:09:14.542Z,66.51
2022-11-26T11:11:41.212Z,66.14
2022-11-26T11:14:27.349Z,66.03
2022-11-26T11:16:54.013Z,65.83
2022-11-26T11:19:24.772Z,66.43
2022-11-26T11:21:51.969Z,66.04
2022-11-26T11:24:23.318Z,66.36
2022-11-26T11:26:55.222Z,66.35
2022-11-26T11:32:34.648Z,65.55
2022-11-26T11:35:20.414Z,65.42
2022-11-26T11:37:52.729Z,65.87
2022-11-26T11:40:25.326Z,66.05
2022-11-26T11:42:58.919Z,66.37
2022-11-26T11:45:34.654Z,66.50
2022-11-26T11:48:30.480Z,65.90
2022-11-26T11:51:19.730Z,65.79
2022-11-26T11:54:17.033Z,66.11
2022-11-26T11:56:55.408Z,65.92
2022-11-26T11:59:58.173Z,65.35
2022-11-26T12:02:46.831Z,65.76
2022-11-26T12:05:38.713Z,65.33
2022-11-26T12:08:17.755Z,66.02
2022-11-26T12:11:32.611Z,65.75
2022-11-26T12:14:20.350Z,65.44
2022-11-26T12:16:52.523Z,67.06
2022-11-26T12:19:42.651Z,66.66
2022-11-26T12:22:26.944Z,66.81
2022-11-26T12:25:03.218Z,66.34
2022-11-26T12:27:58.217Z,66.12
2022-11-26T12:30:35.599Z,66.61
2022-11-26T12:33:12.741Z,67.05
2022-11-26T12:35:56.396Z,66.79
2022-11-26T12:38:34.745Z,66.42
2022-11-26T12:41:03.639Z,66.48
2022-11-26T12:44:05.583Z,66.89
2022-11-26T12:46:44.646Z,66.35
2022-11-26T12:49:23.484Z,66.27
2022-11-26T12:52:17.229Z,66.94
2022-11-26T12:54:59.125Z,66.34
2022-11-26T12:57:44.621Z,66.69
2022-11-26T13:00:17.368Z,66.78
2022-11-26T13:02:48.924Z,66.15
2022-11-26T13:05:20.162Z,66.57
2022-11-26T13:08:19.082Z,66.68
2022-11-26T13:11:10.694Z,66.46
2022-11-26T13:13:38.450Z,66.37
2022-11-26T13:16:24.102Z,65.96
2022-11-26T13:18:56.370Z,65.85
2022-11-26T13:21:40.125Z,66.01
2022-11-26T13:24:27.841Z,65.86
2022-11-26T13:26:54.526Z,65.25
2022-11-26T13:29:46.389Z,65.74
2022-11-26T13:32:13.389Z,65.69
2022-11-26T13:35:05.203Z,65.74
2022-11-26T13:38:18.563Z,66.60
2022-11-26T13:41:17.610Z,66.70
2022-11-26T13:44:23.978Z,67.04
2022-11-26T13:47:06.246Z,67.20
2022-11-26T13:50:18.947Z,67.82
2022-11-26T13:52:53.329Z,67.80
2022-11-26T13:55:49.055Z,68.23
2022-11-26T13:58:23.885Z,68.83
2022-11-26T14:11:40.272Z,70.62
2022-11-26T14:14:25.155Z,70.24
2022-11-26T14:17:00.510Z,71.14
2022-11-26T14:19:42.520Z,70.35
2022-11-26T14:22:11.768Z,70.97
2022-11-26T14:25:04.159Z,71.01
2022-11-26T14:27:37.212Z,71.09
2022-11-26T14:30:06.739Z,71.47
2022-11-26T14:33:07.737Z,70.59
2022-11-26T14:55:38.540Z,69.73
2022-11-26T14:58:14.058Z,70.11
2022-11-26T15:00:40.619Z,69.88
2022-11-26T15:03:23.716Z,69.84
2022-11-26T15:05:50.394Z,69.92
2022-11-26T15:08:20.219Z,70.29
2022-11-26T15:11:02.656Z,70.49
2022-11-26T15:25:15.510Z,71.35
2022-11-26T15:28:17.608Z,72.54
2022-11-26T15:31:02.344Z,73.12
2022-11-26T15:33:34.437Z,72.97
2022-11-26T15:36:10.408Z,72.69
2022-11-26T15:57:56.033Z,72.71
2022-11-26T16:00:36.377Z,73.94
2022-11-26T16:03:05.174Z,73.84
2022-11-26T16:05:39.398Z,73.96
2022-11-26T16:28:13.964Z,71.88
2022-11-26T16:30:43.913Z,72.26
2022-11-26T16:33:11.186Z,72.16
2022-11-26T16:35:46.703Z,72.41
2022-11-26T16:38:25.435Z,71.95
2022-11-26T16:40:52.493Z,71.55
2022-11-26T16:43:19.221Z,72.01
2022-11-26T16:45:48.207Z,72.35
2022-11-26T16:48:27.141Z,72.58
2022-11-26T16:50:55.293Z,72.12
2022-11-26T16:53:22.468Z,72.45
2022-11-26T16:55:50.161Z,72.14
2022-11-26T16:58:26.440Z,72.42
2022-11-26T17:00:53.749Z,72.30
2022-11-26T17:03:22.732Z,71.99
2022-11-26T17:05:54.015Z,71.66
2022-11-26T17:08:20.645Z,71.57
2022-11-26T17:10:47.690Z,71.78
2022-11-26T17:13:15.550Z,71.79
2022-11-26T17:15:43.019Z,71.84
2022-11-26T17:18:21.914Z,72.08
2022-11-26T17:20:49.245Z,72.07
2022-11-26T17:23:16.641Z,72.04
2022-11-26T17:25:51.412Z,72.17
2022-11-26T17:34:04.036Z,74.37
2022-11-26T17:36:36.789Z,75.65
2022-11-26T17:39:03.856Z,73.86
2022-11-26T17:41:43.600Z,73.74
2022-11-26T17:44:10.163Z,75.25
2022-11-26T17:47:00.956Z,75.61
2022-11-26T17:49:23.449Z,75.03
2022-11-26T17:51:49.995Z,75.83
2022-11-26T17:54:16.561Z,75.75
2022-11-26T17:56:43.135Z,76.21
2022-11-26T17:59:09.763Z,75.20
2022-11-26T18:01:36.445Z,74.94
2022-11-26T18:04:03.226Z,74.33
2022-11-26T18:06:48.560Z,73.91
2022-11-26T18:09:15.130Z,74.65
2022-11-26T18:11:47.548Z,74.82
2022-11-26T18:14:14.139Z,74.01
2022-11-26T18:16:44.042Z,73.57
2022-11-26T18:19:12.756Z,73.27
2022-11-26T18:21:45.794Z,73.32
2022-11-26T18:24:13.468Z,72.97
2022-11-26T18:26:43.404Z,73.20
2022-11-26T18:29:10.534Z,74.00
2022-11-26T18:31:39.729Z,74.32
2022-11-26T18:34:07.492Z,74.84
2022-11-26T18:36:34.261Z,74.53
2022-11-26T18:39:03.954Z,74.05
2022-11-26T18:41:30.687Z,74.44
2022-11-26T18:43:57.436Z,74.38
2022-11-26T18:46:24.101Z,74.38
2022-11-26T18:48:51.073Z,74.09
2022-11-26T18:51:18.126Z,74.35
2022-11-26T18:53:45.314Z,73.83
2022-11-26T18:56:17.203Z,73.37
2022-11-26T18:58:44.563Z,73.78
2022-11-26T19:01:20.361Z,73.60
2022-11-26T19:03:47.023Z,73.03
2022-11-26T19:06:16.942Z,73.00
2022-11-26T19:08:43.819Z,73.17
2022-11-26T19:11:12.912Z,72.97
2022-11-26T19:13:39.491Z,73.46
2022-11-26T19:16:14.488Z,73.27
2022-11-26T19:18:43.100Z,74.05
2022-11-26T19:21:39.332Z,73.66
2022-11-26T19:24:07.991Z,74.19
2022-11-26T19:26:36.971Z,73.94
2022-11-26T19:29:05.717Z,74.23
2022-11-26T19:31:35.996Z,73.78
2022-11-26T19:34:08.894Z,73.74
2022-11-26T19:44:41.650Z,72.41
2022-11-26T19:47:08.325Z,73.63
2022-11-26T19:49:34.849Z,75.52
2022-11-26T19:52:23.897Z,74.97
2022-11-26T19:55:15.966Z,75.14
2022-11-26T19:57:42.512Z,74.56
2022-11-26T20:00:09.807Z,73.82
2022-11-26T20:02:36.506Z,73.84
2022-11-26T20:05:04.761Z,73.72
2022-11-26T20:07:31.358Z,73.20
2022-11-26T20:10:22.825Z,72.71
2022-11-26T20:12:49.351Z,72.56
2022-11-26T20:17:51.147Z,72.37
2022-11-26T20:20:39.637Z,72.71
2022-11-26T20:47:04.989Z,73.35
2022-11-26T20:49:34.620Z,73.07
2022-11-26T20:52:03.570Z,73.05
2022-11-26T20:58:41.750Z,73.46
2022-11-26T21:01:30.341Z,74.06
2022-11-26T21:03:58.299Z,73.88
2022-11-26T21:06:30.506Z,73.63
2022-11-26T21:09:01.788Z,73.48
2022-11-26T21:11:29.737Z,73.39
2022-11-26T21:13:58.730Z,73.17
2022-11-26T21:16:27.495Z,73.51
2022-11-26T21:18:54.871Z,73.20
2022-11-26T21:21:22.993Z,73.54
2022-11-26T21:23:49.921Z,73.40
2022-11-26T21:26:19.041Z,72.99
2022-11-26T21:28:50.838Z,72.84
2022-11-26T21:31:18.606Z,72.88
2022-11-26T21:33:46.450Z,72.78
2022-11-26T21:36:16.068Z,72.99
2022-11-26T21:38:43.433Z,72.87
2022-11-26T21:41:12.608Z,73.10
2022-11-26T21:43:43.695Z,73.01
2022-11-26T21:46:14.818Z,73.15
2022-11-26T21:48:41.577Z,73.12
2022-11-26T21:51:10.416Z,73.51
2022-11-26T21:53:37.183Z,73.22
2022-11-26T21:56:08.641Z,73.05
2022-11-26T21:58:37.059Z,72.88
2022-11-26T22:03:40.966Z,72.78
2022-11-26T22:06:08.270Z,72.73
2022-11-26T22:08:35.161Z,72.95
2022-11-26T22:11:08.052Z,72.46
2022-11-26T22:13:34.594Z,72.84
2022-11-26T22:16:43.939Z,72.90
2022-11-26T22:19:38.726Z,72.94
2022-11-26T22:22:05.743Z,73.18
2022-11-26T22:24:32.648Z,73.51
2022-11-26T22:26:59.501Z,73.47
2022-11-26T22:29:26.150Z,73.54
2022-11-26T22:48:26.037Z,73.01
2022-11-26T22:51:12.594Z,73.06
2022-11-26T22:54:06.994Z,73.33
2022-11-26T22:56:34.514Z,73.30
2022-11-26T22:59:01.610Z,73.30
2022-11-26T23:01:30.921Z,73.31
2022-11-26T23:04:25.257Z,73.45
2022-11-26T23:06:51.800Z,73.76
2022-11-26T23:09:18.435Z,73.54
2022-11-26T23:11:45.515Z,73.16
2022-11-26T23:14:12.434Z,73.09
2022-11-26T23:16:40.987Z,73.07
2022-11-26T23:19:32.387Z,72.79
2022-11-26T23:21:59.040Z,73.28
2022-11-26T23:24:26.950Z,72.88
2022-11-26T23:26:53.518Z,72.97
2022-11-26T23:36:43.810Z,74.11
2022-11-26T23:39:37.239Z,74.29
2022-11-26T23:42:09.673Z,74.55
